METAR Data
IDs: Format: Raw Decoded Include TAF

Data at: 0210 UTC 20 Jan 2022

ETIC 200156Z AUTO 26005KT 9999 -RA OVC006 01/00 A3008 RMK AO2 RAE10SNB10E24RAB24 SLP209 P0001 T00090002 FZRANO $